Amman, Jordan

8:14 PM EEST on July 01, 2015 (GMT +0300)
Mars Mount | | Change Station
CLOSE
Current Station
Personal Weather Station
Location: Amman, MARIKH
Elevation: 2953 ft
Nearby Weather Stations

Elev 2953 ft 31.93 °N, 35.92 °E | Updated 1 minute ago

Haze
Haze
83.5 °F
Feels Like 81 °F
N
2.2
Wind Variable Wind from NW
Gusts 4.5 mph

Today
High -- | Low -- °F
--% Chance of Precip.
Yesterday
High -- | Low -- °F
Precip. -- in
5:33 AM 7:46 PM
Full, 100% visible
Pressure 29.95 in
Visibility 3.1 miles
Clouds
Heat Index 81 °F
Dew Point 43 °F
Humidity 24%
Rainfall 0.00 in
Snow Depth Not available.
UV Not available.
Pollen Not available.
Air Quality Not available.
Flu Activity Not available.
METAR OJAM 011700Z 35004KT 5000 HZ NSC 30/06 Q1014 NOSIG

More Conditions Fewer Conditions

Pressure 29.95 in
Visibility 3.1 miles
Clouds
Heat Index 81 °F
Dew Point 43 °F
Humidity 24%
Rainfall 0.00 in
Snow Depth Not available.
UV Not available.
Pollen Not available.
Air Quality Not available.
Flu Activity Not available.
METAR OJAM 011700Z 35004KT 5000 HZ NSC 30/06 Q1014 NOSIG

More Conditions Fewer Conditions

10-Day Weather Forecast

×

Almanac

Astronomy

Jul. 01, 2015 Rise Set
Actual Time
Civil Twilight
Nautical Twilight
Astronomical Twilight
Moon
Length of Visible Light
Length of Day
Tomorrow will be .
, % of the Moon is Illuminated

Today's Extremes

Country Highs Country Lows

Community

WunderPhotos

Upload Photos

1,834,248 photos uploaded!

WunderBlogs® & News

Nearby

Air Quality

  Air Quality AQ Index Pollutant
Not available.

Snow Depth

Station Depth Elevation

Earthquake Activity

City Distance Mag. Time & Date
Minimum magnitude displayed is 2.5.

Coastal Water Temperatures

Place Temperature

Stations

Nearby Weather Stations

Station Location Temp. Windchill Dew Point Humidity Wind Precip. Elev Updated Type